sensor_id;sensor_type;location;lat;lon;timestamp;pressure;altitude;pressure_sealevel;temperature
54746;BMP180;40640;48.130;11.356;2023-01-09T00:02:33;94011.00;;;7.60
54746;BMP180;40640;48.130;11.356;2023-01-09T00:06:37;94020.00;;;7.60
54746;BMP180;40640;48.130;11.356;2023-01-09T00:10:43;94018.00;;;7.60
54746;BMP180;40640;48.130;11.356;2023-01-09T00:14:46;94023.00;;;7.70
54746;BMP180;40640;48.130;11.356;2023-01-09T00:18:51;94035.00;;;7.60
54746;BMP180;40640;48.130;11.356;2023-01-09T00:22:54;94022.00;;;7.60
54746;BMP180;40640;48.130;11.356;2023-01-09T00:26:57;94020.00;;;7.60
54746;BMP180;40640;48.130;11.356;2023-01-09T00:31:01;94023.00;;;7.80
54746;BMP180;40640;48.130;11.356;2023-01-09T00:35:08;94020.00;;;7.60
54746;BMP180;40640;48.130;11.356;2023-01-09T00:39:11;94014.00;;;7.80
54746;BMP180;40640;48.130;11.356;2023-01-09T00:43:14;94018.00;;;7.60
54746;BMP180;40640;48.130;11.356;2023-01-09T00:47:21;94009.00;;;7.50
54746;BMP180;40640;48.130;11.356;2023-01-09T00:51:26;94007.00;;;7.50
54746;BMP180;40640;48.130;11.356;2023-01-09T00:55:29;94012.00;;;7.60
54746;BMP180;40640;48.130;11.356;2023-01-09T00:59:32;94017.00;;;7.60
54746;BMP180;40640;48.130;11.356;2023-01-09T01:03:35;94006.00;;;7.70
54746;BMP180;40640;48.130;11.356;2023-01-09T01:07:39;94013.00;;;7.50
54746;BMP180;40640;48.130;11.356;2023-01-09T01:11:43;94007.00;;;7.50
54746;BMP180;40640;48.130;11.356;2023-01-09T01:15:46;93983.00;;;7.50
54746;BMP180;40640;48.130;11.356;2023-01-09T01:19:49;93991.00;;;7.40
54746;BMP180;40640;48.130;11.356;2023-01-09T01:23:53;94002.00;;;7.40
54746;BMP180;40640;48.130;11.356;2023-01-09T01:27:56;93988.00;;;7.40
54746;BMP180;40640;48.130;11.356;2023-01-09T01:31:59;93997.00;;;7.40
54746;BMP180;40640;48.130;11.356;2023-01-09T01:36:04;93999.00;;;7.30
54746;BMP180;40640;48.130;11.356;2023-01-09T01:40:10;93994.00;;;7.40
54746;BMP180;40640;48.130;11.356;2023-01-09T01:48:58;93991.00;;;7.50
54746;BMP180;40640;48.130;11.356;2023-01-09T01:53:10;94001.00;;;7.60
54746;BMP180;40640;48.130;11.356;2023-01-09T01:57:15;93969.00;;;7.50
54746;BMP180;40640;48.130;11.356;2023-01-09T02:01:19;93987.00;;;7.60
54746;BMP180;40640;48.130;11.356;2023-01-09T02:05:22;93995.00;;;7.80
54746;BMP180;40640;48.130;11.356;2023-01-09T02:09:25;93976.00;;;7.70
54746;BMP180;40640;48.130;11.356;2023-01-09T02:13:31;93987.00;;;7.80
54746;BMP180;40640;48.130;11.356;2023-01-09T02:17:56;93982.00;;;7.70
54746;BMP180;40640;48.130;11.356;2023-01-09T02:22:09;93986.00;;;7.60
54746;BMP180;40640;48.130;11.356;2023-01-09T02:31:00;93995.00;;;7.70
54746;BMP180;40640;48.130;11.356;2023-01-09T02:35:12;93993.00;;;7.80
54746;BMP180;40640;48.130;11.356;2023-01-09T02:39:25;93977.00;;;7.70
54746;BMP180;40640;48.130;11.356;2023-01-09T02:43:31;93954.00;;;7.50
54746;BMP180;40640;48.130;11.356;2023-01-09T02:47:38;93959.00;;;7.40
54746;BMP180;40640;48.130;11.356;2023-01-09T02:51:50;93984.00;;;7.70
54746;BMP180;40640;48.130;11.356;2023-01-09T02:56:02;93980.00;;;7.50
54746;BMP180;40640;48.130;11.356;2023-01-09T03:00:11;93973.00;;;7.40
54746;BMP180;40640;48.130;11.356;2023-01-09T03:04:26;93974.00;;;7.50
54746;BMP180;40640;48.130;11.356;2023-01-09T03:08:35;93972.00;;;7.50
54746;BMP180;40640;48.130;11.356;2023-01-09T03:12:40;93975.00;;;7.40
54746;BMP180;40640;48.130;11.356;2023-01-09T03:16:46;93972.00;;;7.40
54746;BMP180;40640;48.130;11.356;2023-01-09T03:20:52;93969.00;;;7.40
54746;BMP180;40640;48.130;11.356;2023-01-09T03:24:56;93968.00;;;7.40
54746;BMP180;40640;48.130;11.356;2023-01-09T03:28:59;93968.00;;;7.30
54746;BMP180;40640;48.130;11.356;2023-01-09T03:33:02;93979.00;;;7.40
54746;BMP180;40640;48.130;11.356;2023-01-09T03:37:07;93978.00;;;7.40
54746;BMP180;40640;48.130;11.356;2023-01-09T03:41:10;93982.00;;;7.50
54746;BMP180;40640;48.130;11.356;2023-01-09T03:45:13;93976.00;;;7.40
54746;BMP180;40640;48.130;11.356;2023-01-09T03:49:16;93981.00;;;7.30
54746;BMP180;40640;48.130;11.356;2023-01-09T03:53:22;93976.00;;;7.10
54746;BMP180;40640;48.130;11.356;2023-01-09T03:57:25;93983.00;;;7.20
54746;BMP180;40640;48.130;11.356;2023-01-09T04:01:28;93976.00;;;7.30
54746;BMP180;40640;48.130;11.356;2023-01-09T04:05:31;93982.00;;;7.40
54746;BMP180;40640;48.130;11.356;2023-01-09T04:09:36;94001.00;;;7.60
54746;BMP180;40640;48.130;11.356;2023-01-09T04:13:39;94005.00;;;7.70
54746;BMP180;40640;48.130;11.356;2023-01-09T04:17:41;94006.00;;;7.90
54746;BMP180;40640;48.130;11.356;2023-01-09T04:21:44;94025.00;;;8.00
54746;BMP180;40640;48.130;11.356;2023-01-09T04:25:48;94032.00;;;7.90
54746;BMP180;40640;48.130;11.356;2023-01-09T04:29:52;94037.00;;;7.80
54746;BMP180;40640;48.130;11.356;2023-01-09T04:33:55;94051.00;;;7.80
54746;BMP180;40640;48.130;11.356;2023-01-09T04:37:58;94062.00;;;7.90
54746;BMP180;40640;48.130;11.356;2023-01-09T04:42:03;94074.00;;;7.90
54746;BMP180;40640;48.130;11.356;2023-01-09T04:46:06;94080.00;;;8.10
54746;BMP180;40640;48.130;11.356;2023-01-09T04:50:10;94084.00;;;8.00
54746;BMP180;40640;48.130;11.356;2023-01-09T04:54:13;94091.00;;;8.00
54746;BMP180;40640;48.130;11.356;2023-01-09T04:58:17;94091.00;;;8.00
54746;BMP180;40640;48.130;11.356;2023-01-09T05:02:20;94094.00;;;8.10
54746;BMP180;40640;48.130;11.356;2023-01-09T05:06:23;94109.00;;;8.10
54746;BMP180;40640;48.130;11.356;2023-01-09T05:10:26;94114.00;;;8.30
54746;BMP180;40640;48.130;11.356;2023-01-09T05:14:30;94123.00;;;8.20
54746;BMP180;40640;48.130;11.356;2023-01-09T05:18:33;94149.00;;;8.20
54746;BMP180;40640;48.130;11.356;2023-01-09T05:22:36;94155.00;;;8.30
54746;BMP180;40640;48.130;11.356;2023-01-09T05:26:39;94164.00;;;8.30
54746;BMP180;40640;48.130;11.356;2023-01-09T05:30:43;94163.00;;;8.40
54746;BMP180;40640;48.130;11.356;2023-01-09T05:34:46;94172.00;;;8.40
54746;BMP180;40640;48.130;11.356;2023-01-09T05:38:49;94176.00;;;8.10
54746;BMP180;40640;48.130;11.356;2023-01-09T05:42:52;94180.00;;;8.10
54746;BMP180;40640;48.130;11.356;2023-01-09T05:46:56;94161.00;;;8.20
54746;BMP180;40640;48.130;11.356;2023-01-09T05:51:01;94189.00;;;8.10
54746;BMP180;40640;48.130;11.356;2023-01-09T05:55:04;94201.00;;;8.20
54746;BMP180;40640;48.130;11.356;2023-01-09T05:59:08;94177.00;;;8.20
54746;BMP180;40640;48.130;11.356;2023-01-09T06:03:12;94185.00;;;8.10
54746;BMP180;40640;48.130;11.356;2023-01-09T06:07:15;94171.00;;;8.10
54746;BMP180;40640;48.130;11.356;2023-01-09T06:11:22;94197.00;;;8.00
54746;BMP180;40640;48.130;11.356;2023-01-09T06:15:25;94218.00;;;8.00
54746;BMP180;40640;48.130;11.356;2023-01-09T06:19:29;94222.00;;;8.00
54746;BMP180;40640;48.130;11.356;2023-01-09T06:23:32;94222.00;;;8.00
54746;BMP180;40640;48.130;11.356;2023-01-09T06:27:35;94247.00;;;8.10
54746;BMP180;40640;48.130;11.356;2023-01-09T06:31:38;94247.00;;;8.00
54746;BMP180;40640;48.130;11.356;2023-01-09T06:35:42;94267.00;;;8.00
54746;BMP180;40640;48.130;11.356;2023-01-09T06:39:45;94282.00;;;7.70
54746;BMP180;40640;48.130;11.356;2023-01-09T06:43:48;94283.00;;;7.80
54746;BMP180;40640;48.130;11.356;2023-01-09T06:47:51;94278.00;;;7.90
54746;BMP180;40640;48.130;11.356;2023-01-09T06:51:55;94293.00;;;7.90
54746;BMP180;40640;48.130;11.356;2023-01-09T06:55:58;94295.00;;;7.80
54746;BMP180;40640;48.130;11.356;2023-01-09T07:00:03;94301.00;;;7.90
54746;BMP180;40640;48.130;11.356;2023-01-09T07:04:07;94318.00;;;7.90
54746;BMP180;40640;48.130;11.356;2023-01-09T07:08:12;94323.00;;;7.80
54746;BMP180;40640;48.130;11.356;2023-01-09T07:12:15;94308.00;;;7.90
54746;BMP180;40640;48.130;11.356;2023-01-09T07:16:18;94336.00;;;7.90
54746;BMP180;40640;48.130;11.356;2023-01-09T07:20:21;94327.00;;;7.70
54746;BMP180;40640;48.130;11.356;2023-01-09T07:24:26;94333.00;;;7.60
54746;BMP180;40640;48.130;11.356;2023-01-09T07:28:28;94354.00;;;7.60
54746;BMP180;40640;48.130;11.356;2023-01-09T07:32:32;94356.00;;;7.40
54746;BMP180;40640;48.130;11.356;2023-01-09T07:36:35;94383.00;;;7.50
54746;BMP180;40640;48.130;11.356;2023-01-09T07:40:39;94378.00;;;7.40
54746;BMP180;40640;48.130;11.356;2023-01-09T07:44:42;94393.00;;;7.30
54746;BMP180;40640;48.130;11.356;2023-01-09T07:48:46;94403.00;;;7.30
54746;BMP180;40640;48.130;11.356;2023-01-09T07:52:49;94409.00;;;7.20
54746;BMP180;40640;48.130;11.356;2023-01-09T07:56:53;94403.00;;;7.30
54746;BMP180;40640;48.130;11.356;2023-01-09T08:00:56;94402.00;;;7.40
54746;BMP180;40640;48.130;11.356;2023-01-09T08:04:59;94411.00;;;7.30
54746;BMP180;40640;48.130;11.356;2023-01-09T08:09:02;94419.00;;;7.20
54746;BMP180;40640;48.130;11.356;2023-01-09T08:13:06;94432.00;;;7.20
54746;BMP180;40640;48.130;11.356;2023-01-09T08:17:09;94423.00;;;7.40
54746;BMP180;40640;48.130;11.356;2023-01-09T08:21:15;94422.00;;;7.40
54746;BMP180;40640;48.130;11.356;2023-01-09T08:25:18;94423.00;;;7.50
54746;BMP180;40640;48.130;11.356;2023-01-09T08:29:22;94445.00;;;7.70
54746;BMP180;40640;48.130;11.356;2023-01-09T08:33:25;94449.00;;;7.50
54746;BMP180;40640;48.130;11.356;2023-01-09T08:37:28;94445.00;;;7.50
54746;BMP180;40640;48.130;11.356;2023-01-09T08:41:31;94453.00;;;7.70
54746;BMP180;40640;48.130;11.356;2023-01-09T08:45:53;94456.00;;;7.60
54746;BMP180;40640;48.130;11.356;2023-01-09T08:50:15;94465.00;;;7.80
54746;BMP180;40640;48.130;11.356;2023-01-09T08:54:18;94468.00;;;7.90
54746;BMP180;40640;48.130;11.356;2023-01-09T08:58:21;94460.00;;;8.00
54746;BMP180;40640;48.130;11.356;2023-01-09T09:02:25;94483.00;;;7.90
54746;BMP180;40640;48.130;11.356;2023-01-09T09:06:28;94483.00;;;7.70
54746;BMP180;40640;48.130;11.356;2023-01-09T09:10:31;94474.00;;;8.00
54746;BMP180;40640;48.130;11.356;2023-01-09T09:14:34;94469.00;;;7.90
54746;BMP180;40640;48.130;11.356;2023-01-09T09:18:55;94473.00;;;7.90
54746;BMP180;40640;48.130;11.356;2023-01-09T09:22:58;94475.00;;;7.90
54746;BMP180;40640;48.130;11.356;2023-01-09T09:27:01;94488.00;;;7.70
54746;BMP180;40640;48.130;11.356;2023-01-09T09:31:05;94497.00;;;7.80
54746;BMP180;40640;48.130;11.356;2023-01-09T09:35:10;94488.00;;;7.80
54746;BMP180;40640;48.130;11.356;2023-01-09T09:39:13;94497.00;;;8.00
54746;BMP180;40640;48.130;11.356;2023-01-09T09:43:39;94487.00;;;7.70
54746;BMP180;40640;48.130;11.356;2023-01-09T09:48:09;94501.00;;;7.90
54746;BMP180;40640;48.130;11.356;2023-01-09T09:52:23;94474.00;;;7.90
54746;BMP180;40640;48.130;11.356;2023-01-09T09:56:32;94490.00;;;7.90
54746;BMP180;40640;48.130;11.356;2023-01-09T10:00:35;94466.00;;;7.80
54746;BMP180;40640;48.130;11.356;2023-01-09T10:04:44;94478.00;;;7.70
54746;BMP180;40640;48.130;11.356;2023-01-09T10:08:53;94478.00;;;8.00
54746;BMP180;40640;48.130;11.356;2023-01-09T10:12:58;94475.00;;;8.10
54746;BMP180;40640;48.130;11.356;2023-01-09T10:17:29;94472.00;;;8.10
54746;BMP180;40640;48.130;11.356;2023-01-09T10:21:42;94475.00;;;8.30
54746;BMP180;40640;48.130;11.356;2023-01-09T10:25:54;94478.00;;;8.30
54746;BMP180;40640;48.130;11.356;2023-01-09T10:30:06;94474.00;;;8.20
54746;BMP180;40640;48.130;11.356;2023-01-09T10:34:22;94474.00;;;8.30
54746;BMP180;40640;48.130;11.356;2023-01-09T10:38:34;94458.00;;;8.10
54746;BMP180;40640;48.130;11.356;2023-01-09T10:42:43;94465.00;;;8.40
54746;BMP180;40640;48.130;11.356;2023-01-09T10:46:51;94460.00;;;8.30
54746;BMP180;40640;48.130;11.356;2023-01-09T10:50:55;94466.00;;;8.30
54746;BMP180;40640;48.130;11.356;2023-01-09T10:55:02;94464.00;;;8.40
54746;BMP180;40640;48.130;11.356;2023-01-09T10:59:08;94453.00;;;8.50
54746;BMP180;40640;48.130;11.356;2023-01-09T11:03:12;94456.00;;;8.30
54746;BMP180;40640;48.130;11.356;2023-01-09T11:07:18;94467.00;;;8.40
54746;BMP180;40640;48.130;11.356;2023-01-09T11:11:32;94455.00;;;8.60
54746;BMP180;40640;48.130;11.356;2023-01-09T11:15:37;94455.00;;;8.40
54746;BMP180;40640;48.130;11.356;2023-01-09T11:19:59;94454.00;;;8.40
54746;BMP180;40640;48.130;11.356;2023-01-09T11:24:23;94457.00;;;8.50
54746;BMP180;40640;48.130;11.356;2023-01-09T11:28:28;94460.00;;;8.50
54746;BMP180;40640;48.130;11.356;2023-01-09T11:32:33;94456.00;;;8.50
54746;BMP180;40640;48.130;11.356;2023-01-09T11:36:36;94460.00;;;8.50
54746;BMP180;40640;48.130;11.356;2023-01-09T11:40:45;94439.00;;;8.90
54746;BMP180;40640;48.130;11.356;2023-01-09T11:44:56;94457.00;;;8.70
54746;BMP180;40640;48.130;11.356;2023-01-09T11:49:03;94461.00;;;8.60
54746;BMP180;40640;48.130;11.356;2023-01-09T11:53:13;94459.00;;;8.80
54746;BMP180;40640;48.130;11.356;2023-01-09T11:57:16;94457.00;;;8.80
54746;BMP180;40640;48.130;11.356;2023-01-09T12:06:10;94450.00;;;9.00
54746;BMP180;40640;48.130;11.356;2023-01-09T12:10:36;94447.00;;;8.90
54746;BMP180;40640;48.130;11.356;2023-01-09T12:14:50;94454.00;;;9.00
54746;BMP180;40640;48.130;11.356;2023-01-09T12:19:05;94462.00;;;8.90
54746;BMP180;40640;48.130;11.356;2023-01-09T12:23:32;94473.00;;;9.00
54746;BMP180;40640;48.130;11.356;2023-01-09T12:27:54;94462.00;;;8.80
54746;BMP180;40640;48.130;11.356;2023-01-09T12:32:23;94472.00;;;9.00
54746;BMP180;40640;48.130;11.356;2023-01-09T12:36:31;94475.00;;;9.00
54746;BMP180;40640;48.130;11.356;2023-01-09T12:40:50;94482.00;;;9.20
54746;BMP180;40640;48.130;11.356;2023-01-09T12:44:58;94481.00;;;9.20
54746;BMP180;40640;48.130;11.356;2023-01-09T12:49:17;94476.00;;;9.30
54746;BMP180;40640;48.130;11.356;2023-01-09T12:53:23;94481.00;;;9.40
54746;BMP180;40640;48.130;11.356;2023-01-09T12:57:32;94476.00;;;9.30
54746;BMP180;40640;48.130;11.356;2023-01-09T13:01:40;94476.00;;;9.70
54746;BMP180;40640;48.130;11.356;2023-01-09T13:05:46;94481.00;;;9.80
54746;BMP180;40640;48.130;11.356;2023-01-09T13:09:54;94486.00;;;9.80
54746;BMP180;40640;48.130;11.356;2023-01-09T13:14:02;94477.00;;;9.60
54746;BMP180;40640;48.130;11.356;2023-01-09T13:18:13;94489.00;;;9.70
54746;BMP180;40640;48.130;11.356;2023-01-09T13:22:18;94477.00;;;9.50
54746;BMP180;40640;48.130;11.356;2023-01-09T13:26:23;94467.00;;;9.30
54746;BMP180;40640;48.130;11.356;2023-01-09T13:30:43;94470.00;;;9.40
54746;BMP180;40640;48.130;11.356;2023-01-09T13:34:50;94472.00;;;9.30
54746;BMP180;40640;48.130;11.356;2023-01-09T13:38:53;94465.00;;;9.40
54746;BMP180;40640;48.130;11.356;2023-01-09T13:43:00;94472.00;;;9.30
54746;BMP180;40640;48.130;11.356;2023-01-09T13:47:14;94469.00;;;9.30
54746;BMP180;40640;48.130;11.356;2023-01-09T13:51:58;94471.00;;;9.30
54746;BMP180;40640;48.130;11.356;2023-01-09T13:56:05;94467.00;;;9.20
54746;BMP180;40640;48.130;11.356;2023-01-09T14:04:49;94471.00;;;9.30
54746;BMP180;40640;48.130;11.356;2023-01-09T14:09:11;94456.00;;;9.10
54746;BMP180;40640;48.130;11.356;2023-01-09T14:13:20;94454.00;;;9.20
54746;BMP180;40640;48.130;11.356;2023-01-09T14:17:24;94467.00;;;9.30
54746;BMP180;40640;48.130;11.356;2023-01-09T14:21:43;94464.00;;;9.10
54746;BMP180;40640;48.130;11.356;2023-01-09T14:25:47;94472.00;;;9.20
54746;BMP180;40640;48.130;11.356;2023-01-09T14:30:30;94476.00;;;9.10
54746;BMP180;40640;48.130;11.356;2023-01-09T14:34:34;94487.00;;;9.20
54746;BMP180;40640;48.130;11.356;2023-01-09T14:38:42;94490.00;;;9.10
54746;BMP180;40640;48.130;11.356;2023-01-09T14:42:46;94502.00;;;9.00
54746;BMP180;40640;48.130;11.356;2023-01-09T14:46:53;94508.00;;;8.80
54746;BMP180;40640;48.130;11.356;2023-01-09T14:50:57;94507.00;;;8.90
54746;BMP180;40640;48.130;11.356;2023-01-09T14:55:04;94502.00;;;8.90
54746;BMP180;40640;48.130;11.356;2023-01-09T14:59:11;94512.00;;;8.80
54746;BMP180;40640;48.130;11.356;2023-01-09T15:03:14;94512.00;;;8.80
54746;BMP180;40640;48.130;11.356;2023-01-09T15:07:19;94516.00;;;8.80
54746;BMP180;40640;48.130;11.356;2023-01-09T15:11:25;94510.00;;;8.80
54746;BMP180;40640;48.130;11.356;2023-01-09T15:15:29;94513.00;;;8.90
54746;BMP180;40640;48.130;11.356;2023-01-09T15:19:32;94518.00;;;9.00
54746;BMP180;40640;48.130;11.356;2023-01-09T15:23:35;94511.00;;;8.80
54746;BMP180;40640;48.130;11.356;2023-01-09T15:27:46;94526.00;;;8.90
54746;BMP180;40640;48.130;11.356;2023-01-09T15:31:53;94534.00;;;9.10
54746;BMP180;40640;48.130;11.356;2023-01-09T15:35:56;94532.00;;;8.80
54746;BMP180;40640;48.130;11.356;2023-01-09T15:40:05;94542.00;;;8.90
54746;BMP180;40640;48.130;11.356;2023-01-09T15:44:15;94536.00;;;8.70
54746;BMP180;40640;48.130;11.356;2023-01-09T15:48:24;94556.00;;;8.70
54746;BMP180;40640;48.130;11.356;2023-01-09T15:52:27;94563.00;;;8.60
54746;BMP180;40640;48.130;11.356;2023-01-09T15:56:30;94565.00;;;8.50
54746;BMP180;40640;48.130;11.356;2023-01-09T16:00:38;94560.00;;;8.50
54746;BMP180;40640;48.130;11.356;2023-01-09T16:04:42;94570.00;;;8.50
54746;BMP180;40640;48.130;11.356;2023-01-09T16:08:47;94566.00;;;8.60
54746;BMP180;40640;48.130;11.356;2023-01-09T16:12:52;94567.00;;;8.60
54746;BMP180;40640;48.130;11.356;2023-01-09T16:17:01;94570.00;;;8.50
54746;BMP180;40640;48.130;11.356;2023-01-09T16:21:22;94584.00;;;8.60
54746;BMP180;40640;48.130;11.356;2023-01-09T16:25:28;94598.00;;;8.40
54746;BMP180;40640;48.130;11.356;2023-01-09T16:29:33;94588.00;;;8.30
54746;BMP180;40640;48.130;11.356;2023-01-09T16:33:43;94596.00;;;8.30
54746;BMP180;40640;48.130;11.356;2023-01-09T16:37:47;94595.00;;;8.40
54746;BMP180;40640;48.130;11.356;2023-01-09T16:41:50;94606.00;;;8.30
54746;BMP180;40640;48.130;11.356;2023-01-09T16:46:11;94606.00;;;8.50
54746;BMP180;40640;48.130;11.356;2023-01-09T16:50:15;94595.00;;;8.00
54746;BMP180;40640;48.130;11.356;2023-01-09T16:54:19;94604.00;;;8.20
54746;BMP180;40640;48.130;11.356;2023-01-09T16:58:24;94604.00;;;8.20
54746;BMP180;40640;48.130;11.356;2023-01-09T17:02:28;94609.00;;;7.90
54746;BMP180;40640;48.130;11.356;2023-01-09T17:06:32;94619.00;;;7.90
54746;BMP180;40640;48.130;11.356;2023-01-09T17:10:35;94636.00;;;8.10
54746;BMP180;40640;48.130;11.356;2023-01-09T17:14:38;94638.00;;;8.00
54746;BMP180;40640;48.130;11.356;2023-01-09T17:18:41;94646.00;;;8.10
54746;BMP180;40640;48.130;11.356;2023-01-09T17:22:45;94660.00;;;7.70
54746;BMP180;40640;48.130;11.356;2023-01-09T17:26:49;94665.00;;;7.80
54746;BMP180;40640;48.130;11.356;2023-01-09T17:31:09;94669.00;;;8.00
54746;BMP180;40640;48.130;11.356;2023-01-09T17:35:12;94670.00;;;7.90
54746;BMP180;40640;48.130;11.356;2023-01-09T17:39:17;94672.00;;;8.20
54746;BMP180;40640;48.130;11.356;2023-01-09T17:43:20;94681.00;;;8.00
54746;BMP180;40640;48.130;11.356;2023-01-09T17:47:23;94697.00;;;7.90
54746;BMP180;40640;48.130;11.356;2023-01-09T17:51:26;94699.00;;;8.10
54746;BMP180;40640;48.130;11.356;2023-01-09T17:55:31;94703.00;;;7.80
54746;BMP180;40640;48.130;11.356;2023-01-09T17:59:35;94705.00;;;7.70
54746;BMP180;40640;48.130;11.356;2023-01-09T18:03:38;94713.00;;;8.00
54746;BMP180;40640;48.130;11.356;2023-01-09T18:07:41;94722.00;;;7.70
54746;BMP180;40640;48.130;11.356;2023-01-09T18:11:45;94726.00;;;7.70
54746;BMP180;40640;48.130;11.356;2023-01-09T18:15:53;94724.00;;;7.70
54746;BMP180;40640;48.130;11.356;2023-01-09T18:19:57;94734.00;;;7.70
54746;BMP180;40640;48.130;11.356;2023-01-09T18:24:00;94728.00;;;7.80
54746;BMP180;40640;48.130;11.356;2023-01-09T18:28:05;94730.00;;;7.50
54746;BMP180;40640;48.130;11.356;2023-01-09T18:32:08;94733.00;;;7.60
54746;BMP180;40640;48.130;11.356;2023-01-09T18:36:11;94749.00;;;7.70
54746;BMP180;40640;48.130;11.356;2023-01-09T18:40:14;94754.00;;;7.60
54746;BMP180;40640;48.130;11.356;2023-01-09T18:44:19;94753.00;;;7.40
54746;BMP180;40640;48.130;11.356;2023-01-09T18:48:22;94771.00;;;7.40
54746;BMP180;40640;48.130;11.356;2023-01-09T18:52:25;94764.00;;;7.50
54746;BMP180;40640;48.130;11.356;2023-01-09T18:56:28;94775.00;;;7.20
54746;BMP180;40640;48.130;11.356;2023-01-09T19:00:33;94795.00;;;7.20
54746;BMP180;40640;48.130;11.356;2023-01-09T19:04:36;94802.00;;;7.40
54746;BMP180;40640;48.130;11.356;2023-01-09T19:08:38;94797.00;;;7.20
54746;BMP180;40640;48.130;11.356;2023-01-09T19:12:41;94785.00;;;7.00
54746;BMP180;40640;48.130;11.356;2023-01-09T19:16:46;94806.00;;;7.20
54746;BMP180;40640;48.130;11.356;2023-01-09T19:20:50;94834.00;;;7.60
54746;BMP180;40640;48.130;11.356;2023-01-09T19:24:53;94814.00;;;7.20
54746;BMP180;40640;48.130;11.356;2023-01-09T19:28:56;94834.00;;;6.90
54746;BMP180;40640;48.130;11.356;2023-01-09T19:33:00;94827.00;;;6.90
54746;BMP180;40640;48.130;11.356;2023-01-09T19:37:03;94820.00;;;7.10
54746;BMP180;40640;48.130;11.356;2023-01-09T19:41:10;94831.00;;;7.20
54746;BMP180;40640;48.130;11.356;2023-01-09T19:45:15;94837.00;;;7.30
54746;BMP180;40640;48.130;11.356;2023-01-09T19:49:19;94839.00;;;7.40
54746;BMP180;40640;48.130;11.356;2023-01-09T19:53:22;94853.00;;;6.90
54746;BMP180;40640;48.130;11.356;2023-01-09T19:57:27;94854.00;;;7.00
54746;BMP180;40640;48.130;11.356;2023-01-09T20:01:32;94864.00;;;7.10
54746;BMP180;40640;48.130;11.356;2023-01-09T20:05:36;94878.00;;;7.10
54746;BMP180;40640;48.130;11.356;2023-01-09T20:09:39;94866.00;;;6.80
54746;BMP180;40640;48.130;11.356;2023-01-09T20:13:42;94874.00;;;7.40
54746;BMP180;40640;48.130;11.356;2023-01-09T20:17:45;94881.00;;;7.00
54746;BMP180;40640;48.130;11.356;2023-01-09T20:21:49;94884.00;;;6.80
54746;BMP180;40640;48.130;11.356;2023-01-09T20:25:53;94892.00;;;6.70
54746;BMP180;40640;48.130;11.356;2023-01-09T20:29:58;94905.00;;;6.90
54746;BMP180;40640;48.130;11.356;2023-01-09T20:34:01;94903.00;;;6.80
54746;BMP180;40640;48.130;11.356;2023-01-09T20:38:06;94903.00;;;6.90
54746;BMP180;40640;48.130;11.356;2023-01-09T20:42:09;94913.00;;;7.20
54746;BMP180;40640;48.130;11.356;2023-01-09T20:46:15;94916.00;;;7.10
54746;BMP180;40640;48.130;11.356;2023-01-09T20:50:18;94910.00;;;7.30
54746;BMP180;40640;48.130;11.356;2023-01-09T20:54:22;94929.00;;;7.00
54746;BMP180;40640;48.130;11.356;2023-01-09T20:58:25;94923.00;;;6.90
54746;BMP180;40640;48.130;11.356;2023-01-09T21:02:29;94940.00;;;7.40
54746;BMP180;40640;48.130;11.356;2023-01-09T21:06:32;94933.00;;;7.30
54746;BMP180;40640;48.130;11.356;2023-01-09T21:10:36;94940.00;;;7.10
54746;BMP180;40640;48.130;11.356;2023-01-09T21:14:39;94945.00;;;6.90
54746;BMP180;40640;48.130;11.356;2023-01-09T21:18:42;94955.00;;;7.10
54746;BMP180;40640;48.130;11.356;2023-01-09T21:22:45;94957.00;;;6.80
54746;BMP180;40640;48.130;11.356;2023-01-09T21:26:50;94958.00;;;7.10
54746;BMP180;40640;48.130;11.356;2023-01-09T21:30:52;94959.00;;;7.00
54746;BMP180;40640;48.130;11.356;2023-01-09T21:34:55;94967.00;;;7.10
54746;BMP180;40640;48.130;11.356;2023-01-09T21:39:04;94971.00;;;6.90
54746;BMP180;40640;48.130;11.356;2023-01-09T21:43:14;94980.00;;;6.80
54746;BMP180;40640;48.130;11.356;2023-01-09T21:47:39;94985.00;;;7.10
54746;BMP180;40640;48.130;11.356;2023-01-09T21:51:42;94996.00;;;7.40
54746;BMP180;40640;48.130;11.356;2023-01-09T21:55:45;95005.00;;;7.20
54746;BMP180;40640;48.130;11.356;2023-01-09T21:59:49;95000.00;;;6.80
54746;BMP180;40640;48.130;11.356;2023-01-09T22:03:52;95013.00;;;7.10
54746;BMP180;40640;48.130;11.356;2023-01-09T22:07:55;95002.00;;;6.90
54746;BMP180;40640;48.130;11.356;2023-01-09T22:11:58;95018.00;;;6.90
54746;BMP180;40640;48.130;11.356;2023-01-09T22:16:04;95007.00;;;7.10
54746;BMP180;40640;48.130;11.356;2023-01-09T22:20:08;95018.00;;;6.80
54746;BMP180;40640;48.130;11.356;2023-01-09T22:24:11;95026.00;;;6.60
54746;BMP180;40640;48.130;11.356;2023-01-09T22:28:15;95046.00;;;7.20
54746;BMP180;40640;48.130;11.356;2023-01-09T22:32:19;95048.00;;;7.20
54746;BMP180;40640;48.130;11.356;2023-01-09T22:36:23;95051.00;;;7.20
54746;BMP180;40640;48.130;11.356;2023-01-09T22:40:26;95057.00;;;6.80
54746;BMP180;40640;48.130;11.356;2023-01-09T22:44:29;95056.00;;;6.80
54746;BMP180;40640;48.130;11.356;2023-01-09T22:48:33;95053.00;;;6.70
54746;BMP180;40640;48.130;11.356;2023-01-09T22:52:36;95061.00;;;6.60
54746;BMP180;40640;48.130;11.356;2023-01-09T22:56:39;95058.00;;;6.60
54746;BMP180;40640;48.130;11.356;2023-01-09T23:00:42;95066.00;;;6.80
54746;BMP180;40640;48.130;11.356;2023-01-09T23:04:47;95062.00;;;7.00
54746;BMP180;40640;48.130;11.356;2023-01-09T23:08:50;95081.00;;;7.00
54746;BMP180;40640;48.130;11.356;2023-01-09T23:12:54;95084.00;;;7.10
54746;BMP180;40640;48.130;11.356;2023-01-09T23:16:57;95088.00;;;7.10
54746;BMP180;40640;48.130;11.356;2023-01-09T23:21:03;95079.00;;;6.80
54746;BMP180;40640;48.130;11.356;2023-01-09T23:25:07;95095.00;;;6.80
54746;BMP180;40640;48.130;11.356;2023-01-09T23:29:11;95101.00;;;6.60
54746;BMP180;40640;48.130;11.356;2023-01-09T23:33:14;95108.00;;;7.00
54746;BMP180;40640;48.130;11.356;2023-01-09T23:37:19;95100.00;;;6.70
54746;BMP180;40640;48.130;11.356;2023-01-09T23:41:22;95099.00;;;7.10
54746;BMP180;40640;48.130;11.356;2023-01-09T23:45:45;95102.00;;;6.50
54746;BMP180;40640;48.130;11.356;2023-01-09T23:49:50;95109.00;;;6.60
54746;BMP180;40640;48.130;11.356;2023-01-09T23:53:54;95117.00;;;6.80
54746;BMP180;40640;48.130;11.356;2023-01-09T23:57:57;95114.00;;;6.50
